sensor_id;sensor_type;location;lat;lon;timestamp;P1;durP1;ratioP1;P2;durP2;ratioP2
15629;SDS011;7914;50.842;0.166;2022-08-06T00:00:58;2.60;;;1.77;;
15629;SDS011;7914;50.842;0.166;2022-08-06T00:03:25;2.47;;;1.80;;
15629;SDS011;7914;50.842;0.166;2022-08-06T00:05:50;6.97;;;2.10;;
15629;SDS011;7914;50.842;0.166;2022-08-06T00:08:16;5.70;;;2.10;;
15629;SDS011;7914;50.842;0.166;2022-08-06T00:10:42;4.80;;;1.63;;
15629;SDS011;7914;50.842;0.166;2022-08-06T00:13:08;3.63;;;1.60;;
15629;SDS011;7914;50.842;0.166;2022-08-06T00:15:34;1.90;;;1.80;;
15629;SDS011;7914;50.842;0.166;2022-08-06T00:18:00;3.80;;;1.80;;
15629;SDS011;7914;50.842;0.166;2022-08-06T00:20:26;3.73;;;1.97;;
15629;SDS011;7914;50.842;0.166;2022-08-06T00:22:52;2.67;;;1.87;;
15629;SDS011;7914;50.842;0.166;2022-08-06T00:25:18;5.27;;;2.17;;
15629;SDS011;7914;50.842;0.166;2022-08-06T00:27:43;6.17;;;2.23;;
15629;SDS011;7914;50.842;0.166;2022-08-06T00:30:09;2.60;;;1.90;;
15629;SDS011;7914;50.842;0.166;2022-08-06T00:32:35;4.33;;;2.13;;
15629;SDS011;7914;50.842;0.166;2022-08-06T00:35:01;3.00;;;1.90;;
15629;SDS011;7914;50.842;0.166;2022-08-06T00:37:28;2.13;;;2.00;;
15629;SDS011;7914;50.842;0.166;2022-08-06T00:39:57;3.73;;;2.10;;
15629;SDS011;7914;50.842;0.166;2022-08-06T00:42:24;5.23;;;2.10;;
15629;SDS011;7914;50.842;0.166;2022-08-06T00:44:50;5.07;;;2.10;;
15629;SDS011;7914;50.842;0.166;2022-08-06T00:47:16;4.30;;;1.73;;
15629;SDS011;7914;50.842;0.166;2022-08-06T00:49:42;3.63;;;1.93;;
15629;SDS011;7914;50.842;0.166;2022-08-06T00:52:08;2.70;;;1.87;;
15629;SDS011;7914;50.842;0.166;2022-08-06T00:54:34;2.30;;;1.70;;
15629;SDS011;7914;50.842;0.166;2022-08-06T00:56:59;4.67;;;1.97;;
15629;SDS011;7914;50.842;0.166;2022-08-06T00:59:25;4.07;;;1.90;;
15629;SDS011;7914;50.842;0.166;2022-08-06T01:01:51;2.90;;;1.80;;
15629;SDS011;7914;50.842;0.166;2022-08-06T01:04:17;4.47;;;2.00;;
15629;SDS011;7914;50.842;0.166;2022-08-06T01:06:44;3.23;;;2.10;;
15629;SDS011;7914;50.842;0.166;2022-08-06T01:09:09;3.77;;;1.80;;
15629;SDS011;7914;50.842;0.166;2022-08-06T01:11:35;2.47;;;2.10;;
15629;SDS011;7914;50.842;0.166;2022-08-06T01:14:02;3.90;;;2.00;;
15629;SDS011;7914;50.842;0.166;2022-08-06T01:22:23;5.87;;;2.20;;
15629;SDS011;7914;50.842;0.166;2022-08-06T01:25:20;2.80;;;2.10;;
15629;SDS011;7914;50.842;0.166;2022-08-06T01:27:54;3.60;;;2.27;;
15629;SDS011;7914;50.842;0.166;2022-08-06T01:30:27;4.33;;;2.10;;
15629;SDS011;7914;50.842;0.166;2022-08-06T01:33:04;5.00;;;2.17;;
15629;SDS011;7914;50.842;0.166;2022-08-06T01:35:35;4.57;;;2.20;;
15629;SDS011;7914;50.842;0.166;2022-08-06T01:38:15;4.03;;;2.27;;
15629;SDS011;7914;50.842;0.166;2022-08-06T01:40:47;3.70;;;2.00;;
15629;SDS011;7914;50.842;0.166;2022-08-06T01:43:16;4.33;;;2.03;;
15629;SDS011;7914;50.842;0.166;2022-08-06T01:45:45;3.93;;;2.60;;
15629;SDS011;7914;50.842;0.166;2022-08-06T01:48:14;4.10;;;2.40;;
15629;SDS011;7914;50.842;0.166;2022-08-06T01:50:44;4.00;;;2.10;;
15629;SDS011;7914;50.842;0.166;2022-08-06T01:53:13;2.43;;;2.20;;
15629;SDS011;7914;50.842;0.166;2022-08-06T01:55:43;2.53;;;2.20;;
15629;SDS011;7914;50.842;0.166;2022-08-06T01:58:12;5.17;;;2.20;;
15629;SDS011;7914;50.842;0.166;2022-08-06T02:00:44;2.83;;;2.30;;
15629;SDS011;7914;50.842;0.166;2022-08-06T02:03:14;4.97;;;2.43;;
15629;SDS011;7914;50.842;0.166;2022-08-06T02:05:47;5.07;;;2.40;;
15629;SDS011;7914;50.842;0.166;2022-08-06T02:08:15;3.00;;;1.90;;
15629;SDS011;7914;50.842;0.166;2022-08-06T02:10:43;2.80;;;2.20;;
15629;SDS011;7914;50.842;0.166;2022-08-06T02:13:10;2.20;;;2.00;;
15629;SDS011;7914;50.842;0.166;2022-08-06T02:15:37;4.87;;;2.20;;
15629;SDS011;7914;50.842;0.166;2022-08-06T02:18:05;3.67;;;2.33;;
15629;SDS011;7914;50.842;0.166;2022-08-06T02:20:37;3.43;;;2.13;;
15629;SDS011;7914;50.842;0.166;2022-08-06T02:23:16;4.37;;;2.30;;
15629;SDS011;7914;50.842;0.166;2022-08-06T02:25:45;3.77;;;2.30;;
15629;SDS011;7914;50.842;0.166;2022-08-06T02:28:13;2.47;;;2.10;;
15629;SDS011;7914;50.842;0.166;2022-08-06T02:30:42;4.50;;;2.10;;
15629;SDS011;7914;50.842;0.166;2022-08-06T02:33:09;2.93;;;2.30;;
15629;SDS011;7914;50.842;0.166;2022-08-06T02:35:40;2.97;;;2.20;;
15629;SDS011;7914;50.842;0.166;2022-08-06T02:38:20;2.83;;;2.40;;
15629;SDS011;7914;50.842;0.166;2022-08-06T02:40:53;4.03;;;2.50;;
15629;SDS011;7914;50.842;0.166;2022-08-06T02:43:35;3.17;;;2.20;;
15629;SDS011;7914;50.842;0.166;2022-08-06T02:46:11;6.33;;;2.20;;
15629;SDS011;7914;50.842;0.166;2022-08-06T02:48:59;4.03;;;2.10;;
15629;SDS011;7914;50.842;0.166;2022-08-06T02:51:29;4.47;;;2.30;;
15629;SDS011;7914;50.842;0.166;2022-08-06T02:56:30;5.63;;;2.40;;
15629;SDS011;7914;50.842;0.166;2022-08-06T02:58:58;3.77;;;2.10;;
15629;SDS011;7914;50.842;0.166;2022-08-06T03:01:29;2.83;;;2.13;;
15629;SDS011;7914;50.842;0.166;2022-08-06T03:03:59;3.00;;;2.20;;
15629;SDS011;7914;50.842;0.166;2022-08-06T03:06:29;3.50;;;2.30;;
15629;SDS011;7914;50.842;0.166;2022-08-06T03:08:58;3.97;;;2.17;;
15629;SDS011;7914;50.842;0.166;2022-08-06T03:11:25;2.97;;;2.17;;
15629;SDS011;7914;50.842;0.166;2022-08-06T03:13:54;4.13;;;2.23;;
15629;SDS011;7914;50.842;0.166;2022-08-06T03:16:21;2.60;;;1.90;;
15629;SDS011;7914;50.842;0.166;2022-08-06T03:18:48;4.17;;;2.00;;
15629;SDS011;7914;50.842;0.166;2022-08-06T03:21:16;2.20;;;2.00;;
15629;SDS011;7914;50.842;0.166;2022-08-06T03:23:46;3.23;;;2.40;;
15629;SDS011;7914;50.842;0.166;2022-08-06T03:26:13;3.90;;;2.20;;
15629;SDS011;7914;50.842;0.166;2022-08-06T03:28:40;3.67;;;2.07;;
15629;SDS011;7914;50.842;0.166;2022-08-06T03:31:06;3.83;;;2.00;;
15629;SDS011;7914;50.842;0.166;2022-08-06T03:33:32;2.00;;;1.80;;
15629;SDS011;7914;50.842;0.166;2022-08-06T03:35:59;4.50;;;2.10;;
15629;SDS011;7914;50.842;0.166;2022-08-06T03:38:27;5.27;;;2.27;;
15629;SDS011;7914;50.842;0.166;2022-08-06T03:40:57;5.03;;;1.90;;
15629;SDS011;7914;50.842;0.166;2022-08-06T03:43:24;3.57;;;2.13;;
15629;SDS011;7914;50.842;0.166;2022-08-06T03:45:50;2.37;;;2.10;;
15629;SDS011;7914;50.842;0.166;2022-08-06T03:48:23;2.97;;;2.17;;
15629;SDS011;7914;50.842;0.166;2022-08-06T03:50:52;3.37;;;2.10;;
15629;SDS011;7914;50.842;0.166;2022-08-06T03:53:20;3.57;;;2.20;;
15629;SDS011;7914;50.842;0.166;2022-08-06T03:55:49;4.93;;;2.20;;
15629;SDS011;7914;50.842;0.166;2022-08-06T03:58:17;4.30;;;2.03;;
15629;SDS011;7914;50.842;0.166;2022-08-06T04:00:50;2.90;;;2.03;;
15629;SDS011;7914;50.842;0.166;2022-08-06T04:03:20;2.30;;;1.87;;
15629;SDS011;7914;50.842;0.166;2022-08-06T04:05:47;2.53;;;2.33;;
15629;SDS011;7914;50.842;0.166;2022-08-06T04:08:13;3.30;;;2.07;;
15629;SDS011;7914;50.842;0.166;2022-08-06T04:10:44;3.20;;;2.13;;
15629;SDS011;7914;50.842;0.166;2022-08-06T04:13:14;3.03;;;2.10;;
15629;SDS011;7914;50.842;0.166;2022-08-06T04:15:41;4.90;;;2.50;;
15629;SDS011;7914;50.842;0.166;2022-08-06T04:18:08;4.93;;;2.30;;
15629;SDS011;7914;50.842;0.166;2022-08-06T04:20:41;4.13;;;2.20;;
15629;SDS011;7914;50.842;0.166;2022-08-06T04:23:10;4.37;;;2.70;;
15629;SDS011;7914;50.842;0.166;2022-08-06T04:25:38;3.80;;;2.40;;
15629;SDS011;7914;50.842;0.166;2022-08-06T04:28:06;5.30;;;2.73;;
15629;SDS011;7914;50.842;0.166;2022-08-06T04:30:33;4.63;;;2.63;;
15629;SDS011;7914;50.842;0.166;2022-08-06T04:33:04;5.93;;;2.63;;
15629;SDS011;7914;50.842;0.166;2022-08-06T04:35:34;4.33;;;2.70;;
15629;SDS011;7914;50.842;0.166;2022-08-06T04:38:02;5.60;;;2.70;;
15629;SDS011;7914;50.842;0.166;2022-08-06T04:40:28;6.40;;;2.67;;
15629;SDS011;7914;50.842;0.166;2022-08-06T04:42:54;4.73;;;2.90;;
15629;SDS011;7914;50.842;0.166;2022-08-06T04:45:20;4.57;;;2.90;;
15629;SDS011;7914;50.842;0.166;2022-08-06T04:47:47;2.80;;;2.60;;
15629;SDS011;7914;50.842;0.166;2022-08-06T04:50:14;3.87;;;2.77;;
15629;SDS011;7914;50.842;0.166;2022-08-06T04:52:39;3.87;;;2.93;;
15629;SDS011;7914;50.842;0.166;2022-08-06T04:55:06;4.10;;;2.67;;
15629;SDS011;7914;50.842;0.166;2022-08-06T04:57:32;5.53;;;3.10;;
15629;SDS011;7914;50.842;0.166;2022-08-06T04:59:58;5.93;;;2.83;;
15629;SDS011;7914;50.842;0.166;2022-08-06T05:02:23;3.70;;;2.63;;
15629;SDS011;7914;50.842;0.166;2022-08-06T05:04:49;4.60;;;2.90;;
15629;SDS011;7914;50.842;0.166;2022-08-06T05:07:24;5.10;;;2.97;;
15629;SDS011;7914;50.842;0.166;2022-08-06T05:09:53;3.40;;;2.80;;
15629;SDS011;7914;50.842;0.166;2022-08-06T05:12:38;4.67;;;2.73;;
15629;SDS011;7914;50.842;0.166;2022-08-06T05:15:32;4.53;;;2.97;;
15629;SDS011;7914;50.842;0.166;2022-08-06T05:18:03;3.57;;;2.77;;
15629;SDS011;7914;50.842;0.166;2022-08-06T05:20:31;3.67;;;2.90;;
15629;SDS011;7914;50.842;0.166;2022-08-06T05:23:04;4.57;;;2.67;;
15629;SDS011;7914;50.842;0.166;2022-08-06T05:25:50;5.20;;;3.27;;
15629;SDS011;7914;50.842;0.166;2022-08-06T05:28:16;4.77;;;2.70;;
15629;SDS011;7914;50.842;0.166;2022-08-06T05:30:45;5.83;;;2.93;;
15629;SDS011;7914;50.842;0.166;2022-08-06T05:33:32;3.23;;;2.70;;
15629;SDS011;7914;50.842;0.166;2022-08-06T05:36:01;4.20;;;2.60;;
15629;SDS011;7914;50.842;0.166;2022-08-06T05:38:29;3.60;;;2.90;;
15629;SDS011;7914;50.842;0.166;2022-08-06T05:40:56;3.87;;;2.97;;
15629;SDS011;7914;50.842;0.166;2022-08-06T05:43:22;7.20;;;2.90;;
15629;SDS011;7914;50.842;0.166;2022-08-06T05:45:49;4.27;;;2.60;;
15629;SDS011;7914;50.842;0.166;2022-08-06T05:48:21;4.33;;;2.80;;
15629;SDS011;7914;50.842;0.166;2022-08-06T05:50:49;4.50;;;3.20;;
15629;SDS011;7914;50.842;0.166;2022-08-06T05:53:21;3.37;;;2.80;;
15629;SDS011;7914;50.842;0.166;2022-08-06T05:55:57;6.43;;;3.20;;
15629;SDS011;7914;50.842;0.166;2022-08-06T05:58:33;5.23;;;3.40;;
15629;SDS011;7914;50.842;0.166;2022-08-06T06:01:28;5.07;;;3.40;;
15629;SDS011;7914;50.842;0.166;2022-08-06T06:03:57;3.70;;;3.30;;
15629;SDS011;7914;50.842;0.166;2022-08-06T06:06:24;5.23;;;3.40;;
15629;SDS011;7914;50.842;0.166;2022-08-06T06:08:51;3.93;;;3.40;;
15629;SDS011;7914;50.842;0.166;2022-08-06T06:11:17;4.83;;;3.10;;
15629;SDS011;7914;50.842;0.166;2022-08-06T06:13:43;5.30;;;3.33;;
15629;SDS011;7914;50.842;0.166;2022-08-06T06:16:17;6.83;;;3.50;;
15629;SDS011;7914;50.842;0.166;2022-08-06T06:24:29;5.00;;;4.03;;
15629;SDS011;7914;50.842;0.166;2022-08-06T06:26:57;4.67;;;3.70;;
15629;SDS011;7914;50.842;0.166;2022-08-06T06:38:23;4.47;;;4.07;;
15629;SDS011;7914;50.842;0.166;2022-08-06T06:43:46;6.10;;;4.77;;
15629;SDS011;7914;50.842;0.166;2022-08-06T06:46:29;4.33;;;3.93;;
15629;SDS011;7914;50.842;0.166;2022-08-06T06:49:00;4.70;;;4.07;;
15629;SDS011;7914;50.842;0.166;2022-08-06T06:51:48;6.37;;;4.37;;
15629;SDS011;7914;50.842;0.166;2022-08-06T06:54:20;7.93;;;4.47;;
15629;SDS011;7914;50.842;0.166;2022-08-06T06:56:51;6.07;;;4.90;;
15629;SDS011;7914;50.842;0.166;2022-08-06T06:59:21;5.93;;;4.53;;
15629;SDS011;7914;50.842;0.166;2022-08-06T07:01:51;6.47;;;4.80;;
15629;SDS011;7914;50.842;0.166;2022-08-06T07:04:18;5.30;;;4.53;;
15629;SDS011;7914;50.842;0.166;2022-08-06T07:06:46;6.93;;;5.20;;
15629;SDS011;7914;50.842;0.166;2022-08-06T07:09:15;6.37;;;5.10;;
15629;SDS011;7914;50.842;0.166;2022-08-06T07:11:43;6.23;;;5.27;;
15629;SDS011;7914;50.842;0.166;2022-08-06T07:14:10;6.63;;;5.20;;
15629;SDS011;7914;50.842;0.166;2022-08-06T07:16:37;6.73;;;5.00;;
15629;SDS011;7914;50.842;0.166;2022-08-06T07:19:04;5.80;;;5.20;;
15629;SDS011;7914;50.842;0.166;2022-08-06T07:21:32;8.67;;;6.40;;
15629;SDS011;7914;50.842;0.166;2022-08-06T07:24:00;7.33;;;6.50;;
15629;SDS011;7914;50.842;0.166;2022-08-06T07:26:26;7.33;;;6.63;;
15629;SDS011;7914;50.842;0.166;2022-08-06T07:28:54;9.57;;;7.30;;
15629;SDS011;7914;50.842;0.166;2022-08-06T07:31:25;10.10;;;7.10;;
15629;SDS011;7914;50.842;0.166;2022-08-06T07:33:52;7.57;;;6.87;;
15629;SDS011;7914;50.842;0.166;2022-08-06T07:36:20;7.90;;;7.00;;
15629;SDS011;7914;50.842;0.166;2022-08-06T07:38:47;10.83;;;7.20;;
15629;SDS011;7914;50.842;0.166;2022-08-06T07:41:14;8.33;;;7.10;;
15629;SDS011;7914;50.842;0.166;2022-08-06T07:43:54;8.43;;;7.20;;
15629;SDS011;7914;50.842;0.166;2022-08-06T07:46:25;9.33;;;6.50;;
15629;SDS011;7914;50.842;0.166;2022-08-06T07:48:54;7.27;;;6.57;;
15629;SDS011;7914;50.842;0.166;2022-08-06T07:51:23;7.30;;;6.60;;
15629;SDS011;7914;50.842;0.166;2022-08-06T07:53:53;8.93;;;6.33;;
15629;SDS011;7914;50.842;0.166;2022-08-06T07:56:20;8.40;;;6.77;;
15629;SDS011;7914;50.842;0.166;2022-08-06T07:58:47;7.73;;;6.10;;
15629;SDS011;7914;50.842;0.166;2022-08-06T08:01:13;8.23;;;6.70;;
15629;SDS011;7914;50.842;0.166;2022-08-06T08:03:40;11.10;;;6.43;;
15629;SDS011;7914;50.842;0.166;2022-08-06T08:06:25;8.70;;;6.30;;
15629;SDS011;7914;50.842;0.166;2022-08-06T08:09:08;7.47;;;6.37;;
15629;SDS011;7914;50.842;0.166;2022-08-06T08:11:37;10.43;;;6.37;;
15629;SDS011;7914;50.842;0.166;2022-08-06T08:14:09;8.57;;;6.87;;
15629;SDS011;7914;50.842;0.166;2022-08-06T08:16:37;8.10;;;6.80;;
15629;SDS011;7914;50.842;0.166;2022-08-06T08:21:58;7.80;;;6.63;;
15629;SDS011;7914;50.842;0.166;2022-08-06T08:24:25;6.57;;;5.57;;
15629;SDS011;7914;50.842;0.166;2022-08-06T08:26:53;6.97;;;5.70;;
15629;SDS011;7914;50.842;0.166;2022-08-06T08:29:19;7.50;;;5.53;;
15629;SDS011;7914;50.842;0.166;2022-08-06T08:31:45;6.40;;;5.77;;
15629;SDS011;7914;50.842;0.166;2022-08-06T08:34:11;6.83;;;5.57;;
15629;SDS011;7914;50.842;0.166;2022-08-06T08:36:38;8.57;;;5.53;;
15629;SDS011;7914;50.842;0.166;2022-08-06T08:39:04;6.73;;;5.73;;
15629;SDS011;7914;50.842;0.166;2022-08-06T08:41:32;7.80;;;5.50;;
15629;SDS011;7914;50.842;0.166;2022-08-06T08:44:03;7.50;;;5.73;;
15629;SDS011;7914;50.842;0.166;2022-08-06T08:46:32;5.80;;;5.13;;
15629;SDS011;7914;50.842;0.166;2022-08-06T08:49:03;6.10;;;5.50;;
15629;SDS011;7914;50.842;0.166;2022-08-06T08:51:39;6.80;;;5.30;;
15629;SDS011;7914;50.842;0.166;2022-08-06T08:54:08;6.93;;;5.70;;
15629;SDS011;7914;50.842;0.166;2022-08-06T08:56:34;7.93;;;5.40;;
15629;SDS011;7914;50.842;0.166;2022-08-06T08:59:02;10.30;;;5.70;;
15629;SDS011;7914;50.842;0.166;2022-08-06T09:01:28;7.73;;;5.50;;
15629;SDS011;7914;50.842;0.166;2022-08-06T09:03:55;6.07;;;5.47;;
15629;SDS011;7914;50.842;0.166;2022-08-06T09:06:21;7.30;;;5.60;;
15629;SDS011;7914;50.842;0.166;2022-08-06T09:08:47;6.70;;;5.00;;
15629;SDS011;7914;50.842;0.166;2022-08-06T09:11:13;10.68;;;4.93;;
15629;SDS011;7914;50.842;0.166;2022-08-06T09:13:39;5.82;;;5.05;;
15629;SDS011;7914;50.842;0.166;2022-08-06T09:16:05;6.43;;;4.95;;
15629;SDS011;7914;50.842;0.166;2022-08-06T09:18:31;6.38;;;5.45;;
15629;SDS011;7914;50.842;0.166;2022-08-06T09:21:01;7.32;;;5.60;;
15629;SDS011;7914;50.842;0.166;2022-08-06T09:23:27;7.82;;;5.32;;
15629;SDS011;7914;50.842;0.166;2022-08-06T09:25:53;6.10;;;5.03;;
15629;SDS011;7914;50.842;0.166;2022-08-06T09:28:30;5.78;;;4.88;;
15629;SDS011;7914;50.842;0.166;2022-08-06T09:31:07;6.25;;;4.50;;
15629;SDS011;7914;50.842;0.166;2022-08-06T09:33:38;8.65;;;4.90;;
15629;SDS011;7914;50.842;0.166;2022-08-06T09:36:11;5.38;;;4.03;;
15629;SDS011;7914;50.842;0.166;2022-08-06T09:38:44;4.45;;;3.92;;
15629;SDS011;7914;50.842;0.166;2022-08-06T09:41:29;5.45;;;4.30;;
15629;SDS011;7914;50.842;0.166;2022-08-06T09:43:56;4.63;;;4.13;;
15629;SDS011;7914;50.842;0.166;2022-08-06T09:49:08;4.65;;;4.03;;
15629;SDS011;7914;50.842;0.166;2022-08-06T09:51:35;6.72;;;3.97;;
15629;SDS011;7914;50.842;0.166;2022-08-06T09:54:03;6.63;;;3.72;;
15629;SDS011;7914;50.842;0.166;2022-08-06T09:56:31;4.70;;;3.85;;
15629;SDS011;7914;50.842;0.166;2022-08-06T09:59:04;4.55;;;3.92;;
15629;SDS011;7914;50.842;0.166;2022-08-06T10:01:37;3.85;;;3.53;;
15629;SDS011;7914;50.842;0.166;2022-08-06T10:04:11;6.65;;;4.00;;
15629;SDS011;7914;50.842;0.166;2022-08-06T10:06:58;5.32;;;3.75;;
15629;SDS011;7914;50.842;0.166;2022-08-06T10:09:25;3.88;;;3.47;;
15629;SDS011;7914;50.842;0.166;2022-08-06T10:11:52;5.25;;;2.97;;
15629;SDS011;7914;50.842;0.166;2022-08-06T10:14:25;9.07;;;3.42;;
15629;SDS011;7914;50.842;0.166;2022-08-06T10:17:09;5.30;;;3.88;;
15629;SDS011;7914;50.842;0.166;2022-08-06T10:19:37;4.70;;;4.05;;
15629;SDS011;7914;50.842;0.166;2022-08-06T10:22:05;5.80;;;3.75;;
15629;SDS011;7914;50.842;0.166;2022-08-06T10:24:35;5.53;;;3.90;;
15629;SDS011;7914;50.842;0.166;2022-08-06T10:27:05;5.00;;;3.63;;
15629;SDS011;7914;50.842;0.166;2022-08-06T10:29:34;4.68;;;3.38;;
15629;SDS011;7914;50.842;0.166;2022-08-06T10:32:04;5.47;;;4.07;;
15629;SDS011;7914;50.842;0.166;2022-08-06T10:34:32;11.25;;;4.40;;
15629;SDS011;7914;50.842;0.166;2022-08-06T10:37:01;6.80;;;4.00;;
15629;SDS011;7914;50.842;0.166;2022-08-06T10:39:35;9.23;;;3.60;;
15629;SDS011;7914;50.842;0.166;2022-08-06T10:42:04;5.95;;;3.70;;
15629;SDS011;7914;50.842;0.166;2022-08-06T10:44:31;4.13;;;3.72;;
15629;SDS011;7914;50.842;0.166;2022-08-06T10:46:59;7.15;;;3.47;;
15629;SDS011;7914;50.842;0.166;2022-08-06T10:49:26;7.82;;;3.97;;
15629;SDS011;7914;50.842;0.166;2022-08-06T10:51:54;4.07;;;3.67;;
15629;SDS011;7914;50.842;0.166;2022-08-06T10:54:20;4.03;;;3.28;;
15629;SDS011;7914;50.842;0.166;2022-08-06T10:56:46;3.65;;;3.35;;
15629;SDS011;7914;50.842;0.166;2022-08-06T10:59:12;4.22;;;3.20;;
15629;SDS011;7914;50.842;0.166;2022-08-06T11:15:35;3.70;;;3.28;;
15629;SDS011;7914;50.842;0.166;2022-08-06T11:18:03;3.90;;;3.10;;
15629;SDS011;7914;50.842;0.166;2022-08-06T11:25:39;3.33;;;2.47;;
15629;SDS011;7914;50.842;0.166;2022-08-06T11:28:14;4.00;;;3.03;;
15629;SDS011;7914;50.842;0.166;2022-08-06T11:30:50;4.80;;;3.05;;
15629;SDS011;7914;50.842;0.166;2022-08-06T11:33:19;3.13;;;2.47;;
15629;SDS011;7914;50.842;0.166;2022-08-06T11:35:48;5.90;;;3.67;;
15629;SDS011;7914;50.842;0.166;2022-08-06T11:38:16;5.40;;;3.55;;
15629;SDS011;7914;50.842;0.166;2022-08-06T11:41:19;4.53;;;3.53;;
15629;SDS011;7914;50.842;0.166;2022-08-06T11:54:35;6.97;;;3.70;;
15629;SDS011;7914;50.842;0.166;2022-08-06T11:57:22;5.05;;;3.53;;
15629;SDS011;7914;50.842;0.166;2022-08-06T12:05:50;4.88;;;3.33;;
15629;SDS011;7914;50.842;0.166;2022-08-06T12:08:10;5.85;;;3.30;;
15629;SDS011;7914;50.842;0.166;2022-08-06T12:13:47;6.38;;;4.05;;
15629;SDS011;7914;50.842;0.166;2022-08-06T12:16:29;7.63;;;4.13;;
15629;SDS011;7914;50.842;0.166;2022-08-06T12:19:00;6.20;;;3.97;;
15629;SDS011;7914;50.842;0.166;2022-08-06T12:21:28;3.85;;;3.55;;
15629;SDS011;7914;50.842;0.166;2022-08-06T12:23:54;8.23;;;3.40;;
15629;SDS011;7914;50.842;0.166;2022-08-06T12:26:20;4.07;;;3.28;;
15629;SDS011;7914;50.842;0.166;2022-08-06T12:28:46;7.68;;;3.72;;
15629;SDS011;7914;50.842;0.166;2022-08-06T12:31:13;5.63;;;3.78;;
15629;SDS011;7914;50.842;0.166;2022-08-06T12:33:51;8.60;;;4.10;;
15629;SDS011;7914;50.842;0.166;2022-08-06T12:36:17;6.70;;;4.15;;
15629;SDS011;7914;50.842;0.166;2022-08-06T12:38:43;6.18;;;4.30;;
15629;SDS011;7914;50.842;0.166;2022-08-06T12:41:19;8.32;;;4.43;;
15629;SDS011;7914;50.842;0.166;2022-08-06T12:43:45;5.75;;;4.25;;
15629;SDS011;7914;50.842;0.166;2022-08-06T12:46:11;6.70;;;4.00;;
15629;SDS011;7914;50.842;0.166;2022-08-06T12:48:38;4.85;;;4.28;;
15629;SDS011;7914;50.842;0.166;2022-08-06T12:51:12;5.57;;;4.13;;
15629;SDS011;7914;50.842;0.166;2022-08-06T12:53:41;6.03;;;3.97;;
15629;SDS011;7914;50.842;0.166;2022-08-06T12:56:12;5.10;;;3.92;;
15629;SDS011;7914;50.842;0.166;2022-08-06T12:58:39;7.75;;;4.50;;
15629;SDS011;7914;50.842;0.166;2022-08-06T13:01:06;5.97;;;4.55;;
15629;SDS011;7914;50.842;0.166;2022-08-06T13:03:35;7.18;;;4.15;;
15629;SDS011;7914;50.842;0.166;2022-08-06T13:06:06;4.43;;;3.90;;
15629;SDS011;7914;50.842;0.166;2022-08-06T13:08:34;5.35;;;4.05;;
15629;SDS011;7914;50.842;0.166;2022-08-06T13:11:01;6.90;;;4.30;;
15629;SDS011;7914;50.842;0.166;2022-08-06T13:13:37;6.70;;;4.35;;
15629;SDS011;7914;50.842;0.166;2022-08-06T13:16:06;6.82;;;3.88;;
15629;SDS011;7914;50.842;0.166;2022-08-06T13:18:34;4.72;;;4.13;;
15629;SDS011;7914;50.842;0.166;2022-08-06T13:21:03;6.40;;;4.32;;
15629;SDS011;7914;50.842;0.166;2022-08-06T13:23:43;6.22;;;4.43;;
15629;SDS011;7914;50.842;0.166;2022-08-06T13:26:23;7.10;;;4.75;;
15629;SDS011;7914;50.842;0.166;2022-08-06T13:31:40;10.30;;;4.90;;
15629;SDS011;7914;50.842;0.166;2022-08-06T13:34:12;6.07;;;4.15;;
15629;SDS011;7914;50.842;0.166;2022-08-06T13:36:41;6.57;;;4.43;;
15629;SDS011;7914;50.842;0.166;2022-08-06T13:41:44;6.45;;;4.55;;
15629;SDS011;7914;50.842;0.166;2022-08-06T13:44:26;5.53;;;4.32;;
15629;SDS011;7914;50.842;0.166;2022-08-06T13:46:52;5.90;;;4.35;;
15629;SDS011;7914;50.842;0.166;2022-08-06T13:49:18;6.97;;;4.57;;
15629;SDS011;7914;50.842;0.166;2022-08-06T13:51:45;8.07;;;4.45;;
15629;SDS011;7914;50.842;0.166;2022-08-06T13:54:10;5.97;;;4.30;;
15629;SDS011;7914;50.842;0.166;2022-08-06T13:56:36;5.30;;;4.35;;
15629;SDS011;7914;50.842;0.166;2022-08-06T13:59:02;7.22;;;4.18;;
15629;SDS011;7914;50.842;0.166;2022-08-06T14:01:27;5.20;;;4.60;;
15629;SDS011;7914;50.842;0.166;2022-08-06T14:03:54;6.25;;;4.45;;
15629;SDS011;7914;50.842;0.166;2022-08-06T14:06:20;7.43;;;4.80;;
15629;SDS011;7914;50.842;0.166;2022-08-06T14:08:45;6.70;;;4.68;;
15629;SDS011;7914;50.842;0.166;2022-08-06T14:11:12;5.80;;;4.45;;
15629;SDS011;7914;50.842;0.166;2022-08-06T14:13:37;6.10;;;4.88;;
15629;SDS011;7914;50.842;0.166;2022-08-06T14:16:03;5.05;;;4.35;;
15629;SDS011;7914;50.842;0.166;2022-08-06T14:18:29;5.55;;;4.80;;
15629;SDS011;7914;50.842;0.166;2022-08-06T14:20:55;5.57;;;4.68;;
15629;SDS011;7914;50.842;0.166;2022-08-06T14:23:21;5.85;;;4.75;;
15629;SDS011;7914;50.842;0.166;2022-08-06T14:25:47;6.32;;;4.65;;
15629;SDS011;7914;50.842;0.166;2022-08-06T14:28:13;8.00;;;5.07;;
15629;SDS011;7914;50.842;0.166;2022-08-06T14:30:39;6.45;;;4.75;;
15629;SDS011;7914;50.842;0.166;2022-08-06T14:33:05;7.28;;;5.07;;
15629;SDS011;7914;50.842;0.166;2022-08-06T14:35:34;5.00;;;4.50;;
15629;SDS011;7914;50.842;0.166;2022-08-06T14:38:05;7.15;;;4.93;;
15629;SDS011;7914;50.842;0.166;2022-08-06T14:40:31;6.25;;;4.53;;
15629;SDS011;7914;50.842;0.166;2022-08-06T14:43:16;7.78;;;5.10;;
15629;SDS011;7914;50.842;0.166;2022-08-06T14:46:00;6.28;;;4.53;;
15629;SDS011;7914;50.842;0.166;2022-08-06T14:48:26;10.55;;;4.50;;
15629;SDS011;7914;50.842;0.166;2022-08-06T14:50:52;5.15;;;4.15;;
15629;SDS011;7914;50.842;0.166;2022-08-06T14:53:18;5.88;;;4.00;;
15629;SDS011;7914;50.842;0.166;2022-08-06T14:55:43;7.03;;;4.30;;
15629;SDS011;7914;50.842;0.166;2022-08-06T14:58:09;7.07;;;4.25;;
15629;SDS011;7914;50.842;0.166;2022-08-06T15:00:36;8.35;;;4.43;;
15629;SDS011;7914;50.842;0.166;2022-08-06T15:03:02;7.13;;;4.65;;
15629;SDS011;7914;50.842;0.166;2022-08-06T15:05:28;5.65;;;4.20;;
15629;SDS011;7914;50.842;0.166;2022-08-06T15:07:54;6.20;;;4.00;;
15629;SDS011;7914;50.842;0.166;2022-08-06T15:10:19;5.80;;;4.10;;
15629;SDS011;7914;50.842;0.166;2022-08-06T15:12:45;6.90;;;4.20;;
15629;SDS011;7914;50.842;0.166;2022-08-06T15:15:12;6.70;;;4.18;;
15629;SDS011;7914;50.842;0.166;2022-08-06T15:17:37;4.72;;;3.90;;
15629;SDS011;7914;50.842;0.166;2022-08-06T15:20:03;4.95;;;4.20;;
15629;SDS011;7914;50.842;0.166;2022-08-06T15:22:29;4.85;;;3.92;;
15629;SDS011;7914;50.842;0.166;2022-08-06T15:24:55;4.88;;;4.05;;
15629;SDS011;7914;50.842;0.166;2022-08-06T15:27:20;6.10;;;4.38;;
15629;SDS011;7914;50.842;0.166;2022-08-06T15:29:46;5.05;;;4.40;;
15629;SDS011;7914;50.842;0.166;2022-08-06T15:32:12;7.68;;;4.32;;
15629;SDS011;7914;50.842;0.166;2022-08-06T15:34:38;5.10;;;4.03;;
15629;SDS011;7914;50.842;0.166;2022-08-06T15:37:04;5.78;;;4.18;;
15629;SDS011;7914;50.842;0.166;2022-08-06T15:39:32;5.97;;;4.18;;
15629;SDS011;7914;50.842;0.166;2022-08-06T15:41:59;4.63;;;4.07;;
15629;SDS011;7914;50.842;0.166;2022-08-06T15:44:25;8.30;;;4.22;;
15629;SDS011;7914;50.842;0.166;2022-08-06T15:46:51;6.40;;;4.60;;
15629;SDS011;7914;50.842;0.166;2022-08-06T15:49:17;5.03;;;4.32;;
15629;SDS011;7914;50.842;0.166;2022-08-06T15:51:43;4.85;;;4.35;;
15629;SDS011;7914;50.842;0.166;2022-08-06T15:54:09;6.38;;;4.55;;
15629;SDS011;7914;50.842;0.166;2022-08-06T15:56:36;4.93;;;4.18;;
15629;SDS011;7914;50.842;0.166;2022-08-06T15:59:02;7.95;;;4.28;;
15629;SDS011;7914;50.842;0.166;2022-08-06T16:01:28;7.27;;;4.27;;
15629;SDS011;7914;50.842;0.166;2022-08-06T16:03:54;6.25;;;4.60;;
15629;SDS011;7914;50.842;0.166;2022-08-06T16:06:20;6.20;;;5.20;;
15629;SDS011;7914;50.842;0.166;2022-08-06T16:08:46;7.50;;;5.50;;
15629;SDS011;7914;50.842;0.166;2022-08-06T16:11:12;5.77;;;4.37;;
15629;SDS011;7914;50.842;0.166;2022-08-06T16:13:38;5.53;;;4.43;;
15629;SDS011;7914;50.842;0.166;2022-08-06T16:16:03;7.43;;;4.80;;
15629;SDS011;7914;50.842;0.166;2022-08-06T16:18:30;7.27;;;4.37;;
15629;SDS011;7914;50.842;0.166;2022-08-06T16:20:58;5.23;;;4.10;;
15629;SDS011;7914;50.842;0.166;2022-08-06T16:23:25;5.77;;;4.70;;
15629;SDS011;7914;50.842;0.166;2022-08-06T16:25:51;4.95;;;4.50;;
15629;SDS011;7914;50.842;0.166;2022-08-06T16:28:16;5.57;;;4.20;;